Time;durP1;ratioP1;P1;durP2;ratioP2;P2;SDS_P1;SDS_P2;PMS_P1;PMS_P2;Temp;Humidity;BMP_temperature;BMP_pressure;BME280_temperature;BME280_humidity;BME280_pressure;Samples;Min_cycle;Max_cycle;Signal;HPM_P1;HPM_P2
2022/03/09 00:02:13;;;;;;;;;;;;;;;;;;4407283;32;20072;-82
2022/03/09 00:04:38;;;;;;;21.05;12.73;;;;;;;;;;4407672;32;19945;-82
2022/03/09 00:07:04;;;;;;;;;;;;;;;;;;4407268;32;20084;-82
2022/03/09 00:09:29;;;;;;;19.58;12.32;;;;;;;;;;4420833;32;20000;-82
2022/03/09 00:11:54;;;;;;;;;;;;;;;;;;4406993;32;20423;-82
2022/03/09 00:14:19;;;;;;;25.05;13.93;;;;;;;;;;4407433;32;20345;-82
2022/03/09 00:16:44;;;;;;;;;;;;;;;;;;4408385;32;20038;-82
2022/03/09 00:19:10;;;;;;;17.98;11.75;;;;;;;;;;4406520;32;19941;-82
2022/03/09 00:21:35;;;;;;;;;;;;;;;;;;4407108;32;20022;-82
2022/03/09 00:24:00;;;;;;;20.37;12.15;;;;;;;;;;4421221;32;19971;-82
2022/03/09 00:26:25;;;;;;;;;;;;;;;;;;4407941;32;20157;-83
2022/03/09 00:28:50;;;;;;;19.87;13.27;;;;;;;;;;4407800;32;19937;-82
2022/03/09 00:31:16;;;;;;;;;;;;;;;;;;4406778;32;20187;-84
2022/03/09 00:33:41;;;;;;;20.27;11.38;;;;;;;;;;4406371;32;19956;-82
2022/03/09 00:36:06;;;;;;;;;;;;;;;;;;4406877;32;20145;-82
2022/03/09 00:38:31;;;;;;;19.33;11.75;;;;;;;;;;4420730;32;19951;-83
2022/03/09 00:40:56;;;;;;;;;;;;;;;;;;4406722;32;20177;-83
2022/03/09 00:43:22;;;;;;;18.27;11.55;;;;;;;;;;4406396;32;19936;-84
2022/03/09 00:45:47;;;;;;;;;;;;;;;;;;4422707;32;20113;-84
2022/03/09 00:48:12;;;;;;;24.15;12.43;;;;;;;;;;4423292;32;19937;-84
2022/03/09 00:50:38;;;;;;;;;;;;;;;;;;4409460;32;20022;-83
2022/03/09 00:53:03;;;;;;;23.92;13.27;;;;;;;;;;4424849;32;20236;-83
2022/03/09 00:55:28;;;;;;;;;;;;;;;;;;4409622;32;20052;-84
2022/03/09 00:57:53;;;;;;;20.83;12.63;;;;;;;;;;4409412;32;19997;-82
2022/03/09 01:00:18;;;;;;;;;;;;;;;;;;4409481;32;20403;-82
2022/03/09 01:02:44;;;;;;;31.87;13.85;;;;;;;;;;4409134;32;20033;-83
2022/03/09 01:05:09;;;;;;;;;;;;;;;;;;4410225;32;20145;-82
2022/03/09 01:07:34;;;;;;;18.87;12.27;;;;;;;;;;4409096;32;19956;-83
2022/03/09 01:10:00;;;;;;;;;;;;;;;;;;4409501;32;20030;-83
2022/03/09 01:12:25;;;;;;;17.15;11.32;;;;;;;;;;4409578;32;19941;-83
2022/03/09 01:14:50;;;;;;;;;;;;;;;;;;4423902;32;20496;-82
2022/03/09 01:17:16;;;;;;;23.52;12.98;;;;;;;;;;4409010;32;19937;-82
2022/03/09 01:19:41;;;;;;;;;;;;;;;;;;4410010;32;20267;-82
2022/03/09 01:22:06;;;;;;;22.15;12.45;;;;;;;;;;4408694;32;19945;-83
2022/03/09 01:24:31;;;;;;;;;;;;;;;;;;4423043;32;20084;-84
2022/03/09 01:26:56;;;;;;;23.27;14.55;;;;;;;;;;4408964;32;19954;-81
2022/03/09 01:29:21;;;;;;;;;;;;;;;;;;4409618;32;20033;-83
2022/03/09 01:31:47;;;;;;;24.05;12.93;;;;;;;;;;4412032;32;19965;-81
2022/03/09 01:34:13;;;;;;;;;;;;;;;;;;4411069;32;20046;-81
2022/03/09 01:36:39;;;;;;;26.10;12.90;;;;;;;;;;4409500;32;19948;-82
2022/03/09 01:39:04;;;;;;;;;;;;;;;;;;4410381;32;20093;-82
2022/03/09 01:41:29;;;;;;;18.15;12.63;;;;;;;;;;4409561;32;19937;-82
2022/03/09 01:43:55;;;;;;;;;;;;;;;;;;4408876;32;20475;-82
2022/03/09 01:46:20;;;;;;;22.67;13.18;;;;;;;;;;4408695;32;19952;-82
2022/03/09 01:48:45;;;;;;;;;;;;;;;;;;4408854;32;20184;-82
2022/03/09 01:51:10;;;;;;;23.83;13.82;;;;;;;;;;4409098;32;19937;-82
2022/03/09 01:53:37;;;;;;;;;;;;;;;;;;4409166;32;20117;-82
2022/03/09 01:56:02;;;;;;;23.80;14.18;;;;;;;;;;4408336;32;20344;-82
2022/03/09 01:58:27;;;;;;;;;;;;;;;;;;4422806;32;20030;-82
2022/03/09 02:00:52;;;;;;;21.55;13.60;;;;;;;;;;4408242;32;19937;-82
2022/03/09 02:03:19;;;;;;;;;;;;;;;;;;4408865;32;20113;-83
2022/03/09 02:05:44;;;;;;;26.52;12.65;;;;;;;;;;4408159;32;19946;-82
2022/03/09 02:10:53;;;;;;;21.35;12.55;;;;;;;;;;4422869;32;19964;-81
2022/03/09 02:13:19;;;;;;;;;;;;;;;;;;4422395;32;20423;-82
2022/03/09 02:15:44;;;;;;;22.87;12.65;;;;;;;;;;4408514;32;19937;-81
2022/03/09 02:18:09;;;;;;;;;;;;;;;;;;4422874;32;20106;-82
2022/03/09 02:20:36;;;;;;;20.58;12.73;;;;;;;;;;4408225;32;20270;-82
2022/03/09 02:23:01;;;;;;;25.55;14.65;;;;;;;;;;4408071;32;20217;-82
2022/03/09 02:25:26;;;;;;;;;;;;;;;;;;4408239;32;20157;-82
2022/03/09 02:27:52;;;;;;;20.17;11.38;;;;;;;;;;4408888;32;19938;-82
2022/03/09 02:30:17;;;;;;;;;;;;;;;;;;4408857;32;20204;-82
2022/03/09 02:32:43;;;;;;;24.27;13.23;;;;;;;;;;4407882;32;19998;-82
2022/03/09 02:35:12;;;;;;;19.25;12.35;;;;;;;;;;4408887;32;20031;-82
2022/03/09 02:37:38;;;;;;;20.20;12.32;;;;;;;;;;4408338;32;20409;-82
2022/03/09 02:40:03;;;;;;;;;;;;;;;;;;4408237;32;20052;-82
2022/03/09 02:42:29;;;;;;;24.83;13.55;;;;;;;;;;4407724;32;19951;-82
2022/03/09 02:44:54;;;;;;;;;;;;;;;;;;4408345;32;20033;-82
2022/03/09 02:47:19;;;;;;;21.52;12.82;;;;;;;;;;4422515;32;19945;-82
2022/03/09 02:49:44;;;;;;;;;;;;;;;;;;4396460;32;20138;-82
2022/03/09 02:52:10;;;;;;;23.08;13.40;;;;;;;;;;4406992;32;20248;-82
2022/03/09 02:54:35;;;;;;;;;;;;;;;;;;4392554;32;20437;-82
2022/03/09 02:57:00;;;;;;;20.78;12.82;;;;;;;;;;4406979;32;20311;-82
2022/03/09 02:59:25;;;;;;;;;;;;;;;;;;4408179;32;20413;-83
2022/03/09 03:01:50;;;;;;;19.87;11.73;;;;;;;;;;4417736;32;19948;-83
2022/03/09 03:04:15;;;;;;;;;;;;;;;;;;4392703;32;20046;-82
2022/03/09 03:06:40;;;;;;;20.12;11.88;;;;;;;;;;4418046;32;19953;-83
2022/03/09 03:09:06;;;;;;;;;;;;;;;;;;4392236;32;20565;-82
2022/03/09 03:11:31;;;;;;;29.27;13.93;;;;;;;;;;4417468;32;20339;-81
2022/03/09 03:13:56;;;;;;;;;;;;;;;;;;4393477;32;20084;-82
2022/03/09 03:16:21;;;;;;;25.25;13.68;;;;;;;;;;4417929;32;19989;-82
2022/03/09 03:18:46;;;;;;;;;;;;;;;;;;4392366;32;20161;-81
2022/03/09 03:21:12;;;;;;;18.52;12.25;;;;;;;;;;4417635;32;19961;-82
2022/03/09 03:23:37;;;;;;;;;;;;;;;;;;4392234;32;20166;-82
2022/03/09 03:26:04;;;;;;;23.48;12.27;;;;;;;;;;4417295;32;19990;-82
2022/03/09 03:28:29;;;;;;;25.58;12.82;;;;;;;;;;4391892;32;20026;-81
2022/03/09 03:30:54;;;;;;;;;;;;;;;;;;4392293;32;20091;-82
2022/03/09 03:33:21;;;;;;;18.75;11.88;;;;;;;;;;4417090;32;19933;-82
2022/03/09 03:35:46;;;;;;;23.02;12.82;;;;;;;;;;4406180;32;20409;-82
2022/03/09 03:38:11;;;;;;;;;;;;;;;;;;4406724;32;20026;-81
2022/03/09 03:40:38;;;;;;;21.08;12.85;;;;;;;;;;4417106;32;19938;-82
2022/03/09 03:43:04;;;;;;;21.12;13.32;;;;;;;;;;4379206;32;20443;-82
2022/03/09 03:45:29;;;;;;;;;;;;;;;;;;4392784;32;20057;-82
2022/03/09 03:47:54;;;;;;;20.55;11.82;;;;;;;;;;4417581;32;19980;-81
2022/03/09 03:50:19;;;;;;;;;;;;;;;;;;4392185;32;20094;-82
2022/03/09 03:52:45;;;;;;;19.56;10.94;;;;;;;;;;4417027;32;19942;-82
2022/03/09 03:55:10;;;;;;;;;;;;;;;;;;4406066;32;20030;-82
2022/03/09 03:57:35;;;;;;;18.48;11.52;;;;;;;;;;4416844;32;19998;-81
2022/03/09 04:00:00;;;;;;;;;;;;;;;;;;4391863;32;20022;-82
2022/03/09 04:02:26;;;;;;;18.05;10.77;;;;;;;;;;4416933;32;19941;-82
2022/03/09 04:04:51;;;;;;;;;;;;;;;;;;4391755;32;20034;-82
2022/03/09 04:07:16;;;;;;;20.48;11.20;;;;;;;;;;4406140;32;20030;-82
2022/03/09 04:09:41;;;;;;;;;;;;;;;;;;4392270;32;20076;-82
2022/03/09 04:12:07;;;;;;;22.70;12.45;;;;;;;;;;4417101;32;19971;-82
2022/03/09 04:14:32;;;;;;;;;;;;;;;;;;4379111;32;20034;-81
2022/03/09 04:16:59;;;;;;;17.58;11.38;;;;;;;;;;4416789;32;19965;-81
2022/03/09 04:19:24;;;;;;;27.98;11.52;;;;;;;;;;4391502;32;20540;-81
2022/03/09 04:21:49;;;;;;;;;;;;;;;;;;4392396;32;20061;-83
2022/03/09 04:24:14;;;;;;;16.98;10.63;;;;;;;;;;4417119;32;19941;-82
2022/03/09 04:26:40;;;;;;;;;;;;;;;;;;4391611;32;20125;-84
2022/03/09 04:29:05;;;;;;;19.80;9.80;;;;;;;;;;4417310;32;19971;-81
2022/03/09 04:31:30;;;;;;;;;;;;;;;;;;4391643;32;20061;-82
2022/03/09 04:33:55;;;;;;;20.30;10.55;;;;;;;;;;4416614;32;19974;-81
2022/03/09 04:36:20;;;;;;;;;;;;;;;;;;4392373;32;20031;-80
2022/03/09 04:38:45;;;;;;;20.45;10.95;;;;;;;;;;4405612;32;20220;-82
2022/03/09 04:41:11;;;;;;;;;;;;;;;;;;4392180;32;20042;-82
2022/03/09 04:43:36;;;;;;;20.05;11.25;;;;;;;;;;4416418;32;20011;-82
2022/03/09 04:46:01;;;;;;;;;;;;;;;;;;4392004;32;20524;-82
2022/03/09 04:48:26;;;;;;;22.16;11.12;;;;;;;;;;4416629;32;20032;-82
2022/03/09 04:50:51;;;;;;;;;;;;;;;;;;4391682;32;20027;-83
2022/03/09 04:53:17;;;;;;;17.48;11.35;;;;;;;;;;4416930;32;19941;-82
2022/03/09 04:55:42;;;;;;;;;;;;;;;;;;4391614;32;20126;-82
2022/03/09 04:58:07;;;;;;;20.10;10.65;;;;;;;;;;4404999;32;20102;-80
2022/03/09 05:00:32;;;;;;;;;;;;;;;;;;4391874;32;20228;-84
2022/03/09 05:02:58;;;;;;;26.12;14.50;;;;;;;;;;4418766;32;20000;-81
2022/03/09 05:05:23;;;;;;;;;;;;;;;;;;4394069;32;20164;-82
2022/03/09 05:07:48;;;;;;;25.17;11.65;;;;;;;;;;4416589;32;19985;-82
2022/03/09 05:10:13;;;;;;;;;;;;;;;;;;4392085;32;20122;-82
2022/03/09 05:12:38;;;;;;;19.85;10.48;;;;;;;;;;4417052;32;19948;-81
2022/03/09 05:15:03;;;;;;;;;;;;;;;;;;4405658;32;20186;-82
2022/03/09 05:17:29;;;;;;;21.80;10.30;;;;;;;;;;4406570;32;19941;-82
2022/03/09 05:19:54;;;;;;;;;;;;;;;;;;4406507;32;20114;-82
2022/03/09 05:22:19;;;;;;;21.92;11.00;;;;;;;;;;4406028;32;19970;-79
2022/03/09 05:24:44;;;;;;;;;;;;;;;;;;4420464;32;20065;-83
2022/03/09 05:27:09;;;;;;;19.05;11.32;;;;;;;;;;4406076;32;20368;-82
2022/03/09 05:29:35;;;;;;;;;;;;;;;;;;4406371;32;20140;-83
2022/03/09 05:32:00;;;;;;;29.02;12.37;;;;;;;;;;4407386;32;19937;-83
2022/03/09 05:34:25;;;;;;;;;;;;;;;;;;4409595;32;20487;-82
2022/03/09 05:36:50;;;;;;;26.10;12.73;;;;;;;;;;4408681;32;20348;-82
2022/03/09 05:39:15;;;;;;;;;;;;;;;;;;4423945;32;20118;-83
2022/03/09 05:41:41;;;;;;;23.05;12.90;;;;;;;;;;4423206;32;20372;-82
2022/03/09 05:44:07;;;;;;;;;;;;;;;;;;4409273;32;20208;-83
2022/03/09 05:46:32;;;;;;;23.12;12.50;;;;;;;;;;4409332;32;19929;-80
2022/03/09 05:48:57;;;;;;;;;;;;;;;;;;4409221;32;20058;-82
2022/03/09 05:51:23;;;;;;;29.04;14.28;;;;;;;;;;4422924;32;19933;-81
2022/03/09 05:53:48;;;;;;;;;;;;;;;;;;4423401;32;20026;-82
2022/03/09 05:56:13;;;;;;;16.83;10.05;;;;;;;;;;4408544;32;19937;-82
2022/03/09 05:58:38;;;;;;;;;;;;;;;;;;4409295;32;20161;-83
2022/03/09 06:01:03;;;;;;;20.90;11.77;;;;;;;;;;4408604;32;19996;-80
2022/03/09 06:03:30;;;;;;;;;;;;;;;;;;4422576;32;20022;-82
2022/03/09 06:05:55;;;;;;;20.40;11.60;;;;;;;;;;4422989;32;19941;-82
2022/03/09 06:08:20;;;;;;;;;;;;;;;;;;4409312;32;20041;-81
2022/03/09 06:10:46;;;;;;;22.27;12.00;;;;;;;;;;4409165;32;19936;-81
2022/03/09 06:13:11;;;;;;;;;;;;;;;;;;4396904;32;20489;-81
2022/03/09 06:15:36;;;;;;;22.08;12.52;;;;;;;;;;4422802;32;19952;-81
2022/03/09 06:18:01;;;;;;;;;;;;;;;;;;4409307;32;20117;-82
2022/03/09 06:20:26;;;;;;;25.33;13.35;;;;;;;;;;4409589;32;19941;-82
2022/03/09 06:22:51;;;;;;;;;;;;;;;;;;4409322;32;20399;-82
2022/03/09 06:25:17;;;;;;;23.95;13.07;;;;;;;;;;4408447;32;19937;-78
2022/03/09 06:27:42;;;;;;;;;;;;;;;;;;4423395;32;20137;-83
2022/03/09 06:30:08;;;;;;;17.77;11.90;;;;;;;;;;4419313;32;19973;-80
2022/03/09 06:32:34;;;;;;;;;;;;;;;;;;4407698;32;20117;-83
2022/03/09 06:35:00;;;;;;;34.78;12.20;;;;;;;;;;4393047;32;20040;-80
2022/03/09 06:37:25;;;;;;;;;;;;;;;;;;4393615;32;20110;-83
2022/03/09 06:39:50;;;;;;;22.23;11.65;;;;;;;;;;4408113;32;20028;-83
2022/03/09 06:42:15;;;;;;;;;;;;;;;;;;4393114;32;20187;-82
2022/03/09 06:44:40;;;;;;;20.77;11.12;;;;;;;;;;4407030;32;20304;-84
2022/03/09 06:47:05;;;;;;;;;;;;;;;;;;4393373;32;20045;-83
2022/03/09 06:49:31;;;;;;;35.78;11.82;;;;;;;;;;4406627;32;19947;-83
2022/03/09 06:51:56;;;;;;;;;;;;;;;;;;4380373;32;20134;-84
2022/03/09 06:54:21;;;;;;;31.33;12.65;;;;;;;;;;4392949;32;19995;-83
2022/03/09 06:56:47;;;;;;;;;;;;;;;;;;4398350;32;20798;-83
2022/03/09 06:59:12;;;;;;;20.05;11.10;;;;;;;;;;4407610;32;19937;-81
2022/03/09 07:01:37;;;;;;;;;;;;;;;;;;4407823;32;20384;-83
2022/03/09 07:04:02;;;;;;;20.02;10.35;;;;;;;;;;4407897;32;20295;-82
2022/03/09 07:06:28;;;;;;;;;;;;;;;;;;4408011;32;20076;-80
2022/03/09 07:08:53;;;;;;;24.55;11.52;;;;;;;;;;4407462;32;19944;-82
2022/03/09 07:11:18;;;;;;;;;;;;;;;;;;4407992;32;20086;-83
2022/03/09 07:13:43;;;;;;;21.75;11.45;;;;;;;;;;4407204;32;19967;-80
2022/03/09 07:16:08;;;;;;;;;;;;;;;;;;4407846;32;20528;-80
2022/03/09 07:18:34;;;;;;;22.87;11.05;;;;;;;;;;4407164;32;19937;-81
2022/03/09 07:20:59;;;;;;;;;;;;;;;;;;4406996;32;20149;-82
2022/03/09 07:23:24;;;;;;;23.85;11.60;;;;;;;;;;4407526;32;20318;-81
2022/03/09 07:25:50;;;;;;;;;;;;;;;;;;4404722;32;20038;-83
2022/03/09 07:28:15;;;;;;;28.30;15.14;;;;;;;;;;4405198;32;20237;-82
2022/03/09 07:30:40;;;;;;;;;;;;;;;;;;4404678;32;20360;-82
2022/03/09 07:33:05;;;;;;;19.67;11.65;;;;;;;;;;4404494;32;19941;-81
2022/03/09 07:35:30;;;;;;;;;;;;;;;;;;4398941;32;20126;-83
2022/03/09 07:37:56;;;;;;;21.52;12.68;;;;;;;;;;4389364;32;19945;-82
2022/03/09 07:40:21;;;;;;;;;;;;;;;;;;4391354;32;20122;-84
2022/03/09 07:42:46;;;;;;;29.27;13.32;;;;;;;;;;4389080;32;19952;-80
2022/03/09 07:45:11;;;;;;;;;;;;;;;;;;4389799;32;20061;-80
2022/03/09 07:47:36;;;;;;;23.87;13.60;;;;;;;;;;4389809;32;20361;-84
2022/03/09 07:50:01;;;;;;;;;;;;;;;;;;4390420;32;20026;-83
2022/03/09 07:52:30;;;;;;;21.08;12.88;;;;;;;;;;4389237;32;19941;-82
2022/03/09 07:54:55;;;;;;;25.30;11.98;;;;;;;;;;4388671;32;20019;-82
2022/03/09 07:57:20;;;;;;;;;;;;;;;;;;4390244;32;20053;-81
2022/03/09 07:59:45;;;;;;;24.80;11.60;;;;;;;;;;4388728;32;20339;-82
2022/03/09 08:02:10;;;;;;;;;;;;;;;;;;4401468;32;20138;-83
2022/03/09 08:04:36;;;;;;;25.35;12.30;;;;;;;;;;4397707;32;19976;-83
2022/03/09 08:07:01;;;;;;;;;;;;;;;;;;4389361;32;20157;-82
2022/03/09 08:09:28;;;;;;;35.58;11.52;;;;;;;;;;4389537;32;19950;-82
2022/03/09 08:11:54;;;;;;;21.62;12.20;;;;;;;;;;4394510;32;20436;-85
2022/03/09 08:14:19;;;;;;;;;;;;;;;;;;4404398;32;20053;-84
2022/03/09 08:16:44;;;;;;;21.40;12.25;;;;;;;;;;4407043;32;19933;-81
2022/03/09 08:19:09;;;;;;;;;;;;;;;;;;4404487;32;20049;-83
2022/03/09 08:21:35;;;;;;;23.87;11.68;;;;;;;;;;4404840;32;19981;-81
2022/03/09 08:24:00;;;;;;;21.10;11.35;;;;;;;;;;4405178;32;20558;-81
2022/03/09 08:26:25;;;;;;;;;;;;;;;;;;4405343;32;20042;-82
2022/03/09 08:28:50;;;;;;;19.85;11.82;;;;;;;;;;4404074;32;19941;-82
2022/03/09 08:31:16;;;;;;;;;;;;;;;;;;4404048;32;20122;-82
2022/03/09 08:33:42;;;;;;;22.15;11.70;;;;;;;;;;4404213;32;19933;-82
2022/03/09 08:36:07;;;;;;;20.33;10.68;;;;;;;;;;4404330;32;20444;-82
2022/03/09 08:38:42;;;;;;;19.77;10.52;;;;;;;;;;4408845;32;20022;-82
2022/03/09 08:41:07;;;;;;;27.20;11.52;;;;;;;;;;4408364;32;20054;-82
2022/03/09 08:43:33;;;;;;;18.00;11.38;;;;;;;;;;4399805;32;20100;-83
2022/03/09 08:45:58;;;;;;;;;;;;;;;;;;4399762;32;20027;-81
2022/03/09 08:48:26;;;;;;;27.75;12.05;;;;;;;;;;4404985;32;19933;-83
2022/03/09 08:50:51;;;;;;;25.40;12.45;;;;;;;;;;4396379;32;20083;-83
2022/03/09 08:53:17;;;;;;;22.98;12.90;;;;;;;;;;4388902;32;20062;-82
2022/03/09 08:55:42;;;;;;;;;;;;;;;;;;4388920;32;20031;-82
2022/03/09 08:58:07;;;;;;;19.80;12.40;;;;;;;;;;4388942;32;20294;-81
2022/03/09 09:00:32;;;;;;;;;;;;;;;;;;4388854;32;20119;-81
2022/03/09 09:02:58;;;;;;;28.40;13.40;;;;;;;;;;4390306;32;19937;-83
2022/03/09 09:05:23;;;;;;;;;;;;;;;;;;4388995;32;20101;-83
2022/03/09 09:07:48;;;;;;;22.98;12.32;;;;;;;;;;4391102;32;19980;-81
2022/03/09 09:10:17;;;;;;;;;;;;;;;;;;4392216;32;20035;-82
2022/03/09 09:12:42;;;;;;;25.25;12.95;;;;;;;;;;4391252;32;19949;-82
2022/03/09 09:15:08;;;;;;;26.77;12.75;;;;;;;;;;4391457;32;20456;-81
2022/03/09 09:17:33;;;;;;;;;;;;;;;;;;4392155;32;20120;-82
2022/03/09 09:19:59;;;;;;;20.58;11.82;;;;;;;;;;4391460;32;20252;-82
2022/03/09 09:22:24;;;;;;;;;;;;;;;;;;4391746;32;20405;-81
2022/03/09 09:24:50;;;;;;;32.10;14.38;;;;;;;;;;4403713;32;19934;-82
2022/03/09 09:27:15;;;;;;;;;;;;;;;;;;4406350;32;20027;-83
2022/03/09 09:29:40;;;;;;;28.38;14.27;;;;;;;;;;4406650;32;19948;-81
2022/03/09 09:32:05;;;;;;;;;;;;;;;;;;4407924;32;20053;-83
2022/03/09 09:34:32;;;;;;;22.45;12.20;;;;;;;;;;4401789;32;19937;-81
2022/03/09 09:37:11;;;;;;;21.33;13.73;;;;;;;;;;4391235;32;20078;-81
2022/03/09 09:39:47;;;;;;;20.60;13.93;;;;;;;;;;4390513;32;20027;-81
2022/03/09 09:42:12;;;;;;;24.33;13.45;;;;;;;;;;4395895;32;20018;-80
2022/03/09 09:44:37;;;;;;;;;;;;;;;;;;4406607;32;20065;-81
2022/03/09 09:47:06;;;;;;;25.73;15.68;;;;;;;;;;4402882;32;20300;-81
2022/03/09 09:49:37;;;;;;;22.10;13.75;;;;;;;;;;4390235;32;20098;-81
2022/03/09 09:52:03;;;;;;;24.55;14.18;;;;;;;;;;4398017;32;20026;-81
2022/03/09 09:54:29;;;;;;;30.45;14.52;;;;;;;;;;4395438;32;20022;-80
2022/03/09 09:56:55;;;;;;;22.23;13.40;;;;;;;;;;4390350;32;20064;-82
2022/03/09 09:59:20;;;;;;;;;;;;;;;;;;4390665;32;20031;-81
2022/03/09 10:01:45;;;;;;;31.55;14.20;;;;;;;;;;4392419;32;19948;-82
2022/03/09 10:04:10;;;;;;;24.83;14.85;;;;;;;;;;4390580;32;20130;-82
2022/03/09 10:06:38;;;;;;;;;;;;;;;;;;4395475;32;20026;-83
2022/03/09 10:09:06;;;;;;;36.35;15.15;;;;;;;;;;4406159;32;19941;-82
2022/03/09 10:11:45;;;;;;;30.10;15.50;;;;;;;;;;4405760;32;20026;-81
2022/03/09 10:14:13;;;;;;;26.40;15.40;;;;;;;;;;4406658;32;20094;-80
2022/03/09 10:16:38;;;;;;;;;;;;;;;;;;4393583;32;20073;-82
2022/03/09 10:19:07;;;;;;;28.40;15.93;;;;;;;;;;4405813;32;20267;-83
2022/03/09 10:21:37;;;;;;;34.28;15.30;;;;;;;;;;4406355;32;20137;-83
2022/03/09 10:24:08;;;;;;;27.50;16.00;;;;;;;;;;4405928;32;20030;-79
2022/03/09 10:26:40;;;;;;;31.65;16.60;;;;;;;;;;4405728;32;20067;-83
2022/03/09 10:29:09;;;;;;;33.85;15.98;;;;;;;;;;4405288;32;20026;-80
2022/03/09 10:31:38;;;;;;;32.55;16.33;;;;;;;;;;4405377;32;20071;-82
2022/03/09 10:34:04;;;;;;;28.23;17.20;;;;;;;;;;4406958;32;20030;-81
2022/03/09 10:36:32;;;;;;;35.83;17.75;;;;;;;;;;4405852;32;20022;-81
2022/03/09 10:39:14;;;;;;;31.67;19.12;;;;;;;;;;4405493;32;20093;-81
2022/03/09 10:41:40;;;;;;;28.75;17.20;;;;;;;;;;4405882;32;20371;-81
2022/03/09 10:44:06;;;;;;;31.48;18.90;;;;;;;;;;4405577;32;20090;-81
2022/03/09 10:46:31;;;;;;;;;;;;;;;;;;4405533;32;20379;-82
2022/03/09 10:49:03;;;;;;;29.40;17.98;;;;;;;;;;4405462;32;19947;-81
2022/03/09 10:51:34;;;;;;;27.42;17.77;;;;;;;;;;4405875;32;20053;-80
2022/03/09 10:54:01;;;;;;;33.47;16.60;;;;;;;;;;4406899;32;20086;-79
2022/03/09 10:56:29;;;;;;;33.97;18.05;;;;;;;;;;4405806;32;20425;-82
2022/03/09 10:58:55;;;;;;;30.17;17.73;;;;;;;;;;4405946;32;20183;-81
2022/03/09 11:01:20;;;;;;;;;;;;;;;;;;4393834;32;20436;-82
2022/03/09 11:03:46;;;;;;;29.50;18.45;;;;;;;;;;4399154;32;20368;-81
2022/03/09 11:06:11;;;;;;;;;;;;;;;;;;4399270;32;20038;-82
2022/03/09 11:08:37;;;;;;;29.02;17.83;;;;;;;;;;4402500;32;19934;-81
2022/03/09 11:11:03;;;;;;;33.28;17.23;;;;;;;;;;4391595;32;20034;-82
2022/03/09 11:13:28;;;;;;;;;;;;;;;;;;4396384;32;20100;-83
2022/03/09 11:15:54;;;;;;;31.10;17.33;;;;;;;;;;4403468;32;19949;-80
2022/03/09 11:18:22;;;;;;;;;;;;;;;;;;4407419;32;20158;-82
2022/03/09 11:20:48;;;;;;;29.12;18.08;;;;;;;;;;4405558;32;19995;-82
2022/03/09 11:23:16;;;;;;;33.88;17.77;;;;;;;;;;4406255;32;20060;-83
2022/03/09 11:26:00;;;;;;;28.95;17.85;;;;;;;;;;4405992;32;20070;-80
2022/03/09 11:28:29;;;;;;;33.03;17.95;;;;;;;;;;4406619;32;20144;-83
2022/03/09 11:30:58;;;;;;;37.25;21.27;;;;;;;;;;4399361;32;20022;-82
2022/03/09 11:33:36;;;;;;;34.60;19.60;;;;;;;;;;4398204;32;20034;-83
2022/03/09 11:36:01;;;;;;;29.67;18.92;;;;;;;;;;4404680;32;20072;-83
2022/03/09 11:38:32;;;;;;;35.08;19.60;;;;;;;;;;4395352;32;20034;-81
2022/03/09 11:41:21;;;;;;;36.70;18.35;;;;;;;;;;4389914;32;20463;-81
2022/03/09 11:43:49;;;;;;;26.48;17.62;;;;;;;;;;4393955;32;20091;-81
2022/03/09 11:46:14;;;;;;;32.53;19.20;;;;;;;;;;4403391;32;20033;-81
2022/03/09 11:48:49;;;;;;;28.00;18.17;;;;;;;;;;4406126;32;20080;-83
2022/03/09 11:51:14;;;;;;;32.97;19.20;;;;;;;;;;4405208;32;20025;-81
2022/03/09 11:53:53;;;;;;;36.15;18.62;;;;;;;;;;4406214;32;20454;-83
2022/03/09 11:56:32;;;;;;;28.75;19.37;;;;;;;;;;4392670;32;20062;-84
2022/03/09 11:59:14;;;;;;;31.60;19.33;;;;;;;;;;4400770;32;20052;-81
2022/03/09 12:01:58;;;;;;;39.63;21.00;;;;;;;;;;4396891;32;20038;-81
2022/03/09 12:05:00;;;;;;;32.05;20.20;;;;;;;;;;4391505;32;20030;-82
2022/03/09 12:07:28;;;;;;;28.05;20.35;;;;;;;;;;4397451;32;20066;-83
2022/03/09 12:10:01;;;;;;;32.95;21.08;;;;;;;;;;4394186;32;20027;-80
2022/03/09 12:12:27;;;;;;;34.67;20.27;;;;;;;;;;4389678;32;20026;-82
2022/03/09 12:15:03;;;;;;;29.92;20.20;;;;;;;;;;4388923;32;20027;-82
2022/03/09 12:17:43;;;;;;;31.62;18.90;;;;;;;;;;4376695;32;20061;-83
2022/03/09 12:20:14;;;;;;;33.75;21.90;;;;;;;;;;4389622;32;20061;-82
2022/03/09 12:22:55;;;;;;;34.03;20.30;;;;;;;;;;4389162;32;20026;-83
2022/03/09 12:25:43;;;;;;;35.67;21.17;;;;;;;;;;4388843;32;20035;-83
2022/03/09 12:28:32;;;;;;;33.47;20.23;;;;;;;;;;4388810;32;20377;-81
2022/03/09 12:31:09;;;;;;;35.40;20.23;;;;;;;;;;4389569;32;20100;-80
2022/03/09 12:33:36;;;;;;;31.23;20.62;;;;;;;;;;4390284;32;20030;-82
2022/03/09 12:36:09;;;;;;;32.13;20.42;;;;;;;;;;4388967;32;20144;-83
2022/03/09 12:38:42;;;;;;;33.45;20.37;;;;;;;;;;4399874;32;20098;-81
2022/03/09 12:41:29;;;;;;;33.78;20.58;;;;;;;;;;4404963;32;20110;-82
2022/03/09 12:43:55;;;;;;;38.28;20.48;;;;;;;;;;4404624;32;20018;-80
2022/03/09 12:46:21;;;;;;;38.05;21.00;;;;;;;;;;4406725;32;20081;-80
2022/03/09 12:48:47;;;;;;;33.30;20.95;;;;;;;;;;4407956;32;20030;-82
2022/03/09 12:51:12;;;;;;;36.17;20.92;;;;;;;;;;4396009;32;20064;-82
2022/03/09 12:53:38;;;;;;;36.88;22.58;;;;;;;;;;4391274;32;20395;-83
2022/03/09 12:56:13;;;;;;;34.10;21.75;;;;;;;;;;4391920;32;20022;-79
2022/03/09 12:58:39;;;;;;;33.25;21.75;;;;;;;;;;4389944;32;20042;-81
2022/03/09 13:01:05;;;;;;;38.55;22.30;;;;;;;;;;4398598;32;20900;-81
2022/03/09 13:03:31;;;;;;;39.38;21.70;;;;;;;;;;4407490;32;20053;-80
2022/03/09 13:05:56;;;;;;;41.72;22.35;;;;;;;;;;4408165;32;20374;-81
2022/03/09 13:08:21;;;;;;;34.80;22.62;;;;;;;;;;4406612;32;20018;-81
2022/03/09 13:10:52;;;;;;;42.72;21.35;;;;;;;;;;4405772;32;20026;-81
2022/03/09 13:13:19;;;;;;;38.40;22.48;;;;;;;;;;4406793;32;20443;-81
2022/03/09 13:15:51;;;;;;;40.63;23.30;;;;;;;;;;4406353;32;20368;-82
2022/03/09 13:18:32;;;;;;;36.55;23.12;;;;;;;;;;4405582;32;20048;-81
2022/03/09 13:20:59;;;;;;;42.85;23.45;;;;;;;;;;4406941;32;20083;-81
2022/03/09 13:23:33;;;;;;;35.50;21.62;;;;;;;;;;4406405;32;20079;-81
2022/03/09 13:26:18;;;;;;;36.15;23.20;;;;;;;;;;4406124;32;20070;-81
2022/03/09 13:28:47;;;;;;;41.72;23.58;;;;;;;;;;4403953;32;20038;-82
2022/03/09 13:31:13;;;;;;;36.03;22.30;;;;;;;;;;4399999;32;20427;-78
2022/03/09 13:33:38;;;;;;;34.08;22.55;;;;;;;;;;4396817;32;20088;-82
2022/03/09 13:36:03;;;;;;;38.95;22.55;;;;;;;;;;4392289;32;20043;-83
2022/03/09 13:38:35;;;;;;;35.65;23.02;;;;;;;;;;4402931;32;20030;-84
2022/03/09 13:41:01;;;;;;;35.55;23.90;;;;;;;;;;4396861;32;20026;-83
2022/03/09 13:43:28;;;;;;;36.88;23.60;;;;;;;;;;4386690;32;20065;-83
2022/03/09 13:45:54;;;;;;;37.03;22.75;;;;;;;;;;4319196;33;20056;-83
2022/03/09 13:48:25;;;;;;;36.58;23.65;;;;;;;;;;4329110;33;20024;-83
2022/03/09 13:51:00;;;;;;;40.80;23.48;;;;;;;;;;4316579;33;20024;-79
2022/03/09 13:53:36;;;;;;;42.92;25.08;;;;;;;;;;4328461;33;20340;-83
2022/03/09 13:56:03;;;;;;;37.45;22.65;;;;;;;;;;4319745;33;20080;-83
2022/03/09 13:58:37;;;;;;;35.35;21.77;;;;;;;;;;4343795;33;20107;-83
2022/03/09 14:01:22;;;;;;;38.75;24.30;;;;;;;;;;4341313;33;20032;-83
2022/03/09 14:03:50;;;;;;;38.35;22.80;;;;;;;;;;4342713;33;20130;-83
2022/03/09 14:06:22;;;;;;;41.63;24.27;;;;;;;;;;4331655;33;20081;-84
2022/03/09 14:08:48;;;;;;;40.08;24.60;;;;;;;;;;4343491;33;20047;-84
2022/03/09 14:11:18;;;;;;;38.65;23.58;;;;;;;;;;4343629;33;20086;-83
2022/03/09 14:14:05;;;;;;;56.88;23.60;;;;;;;;;;4336654;33;20453;-83
2022/03/09 14:16:41;;;;;;;36.47;24.77;;;;;;;;;;4319759;33;20053;-82
2022/03/09 14:19:11;;;;;;;40.20;23.38;;;;;;;;;;4321440;33;20036;-84
2022/03/09 14:21:37;;;;;;;35.42;23.70;;;;;;;;;;4330983;33;20074;-81
2022/03/09 14:24:07;;;;;;;39.10;23.33;;;;;;;;;;4343303;33;20047;-81
2022/03/09 14:26:43;;;;;;;43.72;25.75;;;;;;;;;;4343115;33;20044;-82
2022/03/09 14:29:27;;;;;;;39.47;23.92;;;;;;;;;;4332209;33;20051;-84
2022/03/09 14:31:53;;;;;;;55.95;26.12;;;;;;;;;;4343422;33;20016;-85
2022/03/09 14:34:19;;;;;;;40.25;24.70;;;;;;;;;;4332218;33;20113;-83
2022/03/09 14:36:48;;;;;;;38.22;23.35;;;;;;;;;;4331131;33;20370;-82
2022/03/09 14:39:13;;;;;;;48.10;25.17;;;;;;;;;;4332040;33;20237;-80
2022/03/09 14:41:40;;;;;;;38.95;24.55;;;;;;;;;;4343183;33;20028;-82
2022/03/09 14:44:05;;;;;;;46.25;25.40;;;;;;;;;;4331866;33;20035;-81
2022/03/09 14:46:34;;;;;;;34.40;23.80;;;;;;;;;;4342836;32;20296;-82
2022/03/09 14:48:59;;;;;;;38.10;24.70;;;;;;;;;;4342682;33;20042;-83
2022/03/09 14:51:24;;;;;;;36.67;23.73;;;;;;;;;;4344069;33;20016;-82
2022/03/09 14:53:51;;;;;;;46.47;24.58;;;;;;;;;;4343509;33;20074;-83
2022/03/09 14:56:16;;;;;;;39.03;23.65;;;;;;;;;;4331443;33;20074;-79
2022/03/09 14:58:47;;;;;;;41.88;23.70;;;;;;;;;;4331116;33;20048;-80
2022/03/09 15:01:12;;;;;;;40.05;23.77;;;;;;;;;;4343493;33;20062;-82
2022/03/09 15:03:39;;;;;;;34.63;21.98;;;;;;;;;;4343034;32;20067;-82